createdAt,value
2017-08-02T00:01:56.483Z,18.23
2017-08-02T00:04:25.599Z,20.23
2017-08-02T00:06:54.657Z,17.07
2017-08-02T00:09:22.955Z,15.40
2017-08-02T00:11:52.066Z,18.00
2017-08-02T00:14:20.354Z,19.40
2017-08-02T00:16:48.646Z,20.17
2017-08-02T00:19:18.326Z,22.10
2017-08-02T00:21:47.255Z,20.03
2017-08-02T00:24:16.303Z,21.53
2017-08-02T00:26:44.627Z,18.80
2017-08-02T00:29:12.914Z,19.70
2017-08-02T00:31:41.202Z,18.43
2017-08-02T00:34:09.537Z,23.10
2017-08-02T00:36:37.821Z,22.83
2017-08-02T00:39:06.113Z,24.30
2017-08-02T00:41:35.938Z,22.43
2017-08-02T00:44:04.236Z,27.63
2017-08-02T00:46:32.515Z,25.77
2017-08-02T00:49:01.624Z,22.73
2017-08-02T00:51:31.253Z,22.70
2017-08-02T00:53:59.807Z,21.90
2017-08-02T00:56:28.157Z,20.03
2017-08-02T00:58:56.466Z,18.73
2017-08-02T01:01:24.761Z,19.57
2017-08-02T01:03:54.631Z,20.23
2017-08-02T01:06:22.934Z,19.57
2017-08-02T01:08:52.753Z,20.37
2017-08-02T01:11:21.091Z,19.57
2017-08-02T01:13:49.775Z,21.27
2017-08-02T01:16:18.844Z,21.17
2017-08-02T01:18:47.559Z,20.67
2017-08-02T01:21:15.843Z,21.13
2017-08-02T01:23:45.635Z,21.13
2017-08-02T01:26:14.222Z,21.13
2017-08-02T01:28:43.647Z,21.67
2017-08-02T01:31:12.696Z,18.00
2017-08-02T01:33:41.810Z,20.53
2017-08-02T01:36:10.102Z,21.90
2017-08-02T01:38:38.386Z,21.47
2017-08-02T01:41:08.209Z,22.43
2017-08-02T01:43:37.995Z,20.97
2017-08-02T01:46:07.055Z,20.30
2017-08-02T01:48:36.144Z,22.67
2017-08-02T01:51:04.422Z,20.70
2017-08-02T01:53:33.475Z,21.77
2017-08-02T01:56:01.795Z,25.27
2017-08-02T01:58:31.219Z,23.93
2017-08-02T02:00:59.503Z,22.70
2017-08-02T02:03:27.847Z,23.80
2017-08-02T02:05:56.138Z,22.33
2017-08-02T02:08:25.194Z,26.07
2017-08-02T02:10:54.312Z,24.70
2017-08-02T02:13:23.385Z,28.33
2017-08-02T02:15:53.035Z,25.00
2017-08-02T02:18:21.638Z,23.77
2017-08-02T02:20:49.923Z,22.70
2017-08-02T02:23:18.218Z,25.97
2017-08-02T02:25:46.551Z,26.30
2017-08-02T02:28:14.839Z,28.37
2017-08-02T02:30:44.632Z,25.40
2017-08-02T02:33:12.968Z,26.77
2017-08-02T02:35:41.264Z,28.73
2017-08-02T02:38:09.566Z,28.43
2017-08-02T02:40:39.067Z,27.40
2017-08-02T02:43:07.366Z,26.80
2017-08-02T02:45:35.651Z,31.17
2017-08-02T02:48:05.136Z,29.73
2017-08-02T02:50:34.190Z,29.90
2017-08-02T02:53:03.247Z,31.83
2017-08-02T02:55:32.930Z,30.40
2017-08-02T02:58:01.483Z,39.57
2017-08-02T03:00:29.766Z,36.57
2017-08-02T03:02:58.271Z,39.47
2017-08-02T03:05:27.682Z,37.23
2017-08-02T03:07:55.999Z,30.80
2017-08-02T03:10:25.063Z,31.80
2017-08-02T03:12:54.158Z,37.07
2017-08-02T03:15:22.475Z,39.67
2017-08-02T03:17:50.840Z,31.73
2017-08-02T03:20:19.127Z,31.63
2017-08-02T03:22:48.920Z,34.47
2017-08-02T03:25:18.010Z,34.80
2017-08-02T03:27:47.436Z,45.87
2017-08-02T03:30:15.723Z,45.17
2017-08-02T03:32:44.056Z,48.17
2017-08-02T03:35:12.343Z,65.37
2017-08-02T03:37:41.403Z,68.03
2017-08-02T03:43:13.659Z,63.20
2017-08-02T03:45:42.278Z,52.17
2017-08-02T03:48:11.327Z,46.23
2017-08-02T03:50:39.611Z,44.13
2017-08-02T03:53:08.702Z,42.23
2017-08-02T03:55:36.989Z,46.40
2017-08-02T03:58:05.274Z,47.47
2017-08-02T04:00:34.735Z,44.93
2017-08-02T04:03:03.018Z,52.93
2017-08-02T04:05:31.298Z,49.50
2017-08-02T04:07:59.633Z,62.47
2017-08-02T04:10:28.700Z,53.10
2017-08-02T04:12:57.015Z,43.30
2017-08-02T04:15:26.488Z,40.60
2017-08-02T04:17:54.785Z,41.60
2017-08-02T04:20:23.842Z,40.90
2017-08-02T04:22:53.319Z,45.17
2017-08-02T04:25:21.607Z,43.73
2017-08-02T04:27:50.653Z,47.93
2017-08-02T04:30:19.407Z,40.60
2017-08-02T04:32:47.710Z,41.07
2017-08-02T04:35:16.128Z,41.57
2017-08-02T04:37:44.466Z,39.50
2017-08-02T04:40:12.754Z,39.33
2017-08-02T04:42:41.030Z,37.47
2017-08-02T04:45:11.008Z,39.67
2017-08-02T04:47:39.291Z,39.70
2017-08-02T04:50:07.575Z,36.63
2017-08-02T04:52:36.690Z,38.10
2017-08-02T04:55:05.735Z,36.53
2017-08-02T04:57:34.794Z,38.27
2017-08-02T05:00:04.538Z,34.93
2017-08-02T05:02:33.582Z,33.37
2017-08-02T05:05:02.998Z,38.00
2017-08-02T05:07:32.090Z,35.70
2017-08-02T05:10:01.515Z,36.30
2017-08-02T05:12:29.802Z,38.70
2017-08-02T05:14:58.154Z,38.93
2017-08-02T05:17:26.459Z,43.30
2017-08-02T05:19:56.483Z,41.13
2017-08-02T05:22:24.822Z,41.67
2017-08-02T05:24:53.127Z,47.90
2017-08-02T05:27:22.763Z,41.77
2017-08-02T05:29:50.978Z,41.67
2017-08-02T05:32:19.265Z,40.23
2017-08-02T05:34:47.555Z,38.37
2017-08-02T05:37:16.654Z,39.70
2017-08-02T05:39:44.939Z,40.70
2017-08-02T05:42:14.735Z,47.13
2017-08-02T05:44:43.107Z,51.37
2017-08-02T05:47:11.389Z,60.43
2017-08-02T05:49:41.178Z,57.53
2017-08-02T05:52:09.521Z,51.90
2017-08-02T05:54:37.804Z,58.73
2017-08-02T05:57:06.088Z,61.27
2017-08-02T05:59:35.571Z,65.33
2017-08-02T06:02:04.622Z,45.03
2017-08-02T06:04:32.914Z,51.77
2017-08-02T06:07:02.707Z,42.03
2017-08-02T06:09:32.498Z,45.93
2017-08-02T06:12:01.555Z,62.27
2017-08-02T06:14:30.310Z,67.03
2017-08-02T06:16:59.390Z,65.83
2017-08-02T06:19:27.719Z,68.03
2017-08-02T06:21:56.745Z,64.20
2017-08-02T06:24:25.040Z,63.93
2017-08-02T06:26:53.331Z,63.63
2017-08-02T06:29:21.938Z,63.80
2017-08-02T06:31:50.994Z,62.73
2017-08-02T06:34:19.278Z,55.47
2017-08-02T06:36:47.611Z,58.40
2017-08-02T06:39:15.949Z,63.63
2017-08-02T06:41:44.660Z,57.13
2017-08-02T06:44:13.891Z,56.27
2017-08-02T06:46:42.174Z,58.10
2017-08-02T06:49:10.463Z,62.93
2017-08-02T06:51:38.786Z,57.57
2017-08-02T06:54:07.074Z,59.83
2017-08-02T06:56:35.363Z,53.30
2017-08-02T06:59:04.482Z,51.97
2017-08-02T07:01:33.530Z,51.13
2017-08-02T07:04:02.578Z,41.40
2017-08-02T07:06:31.310Z,45.67
2017-08-02T07:09:00.962Z,44.13
2017-08-02T07:11:29.137Z,43.20
2017-08-02T07:13:59.004Z,40.70
2017-08-02T07:16:27.298Z,40.60
2017-08-02T07:18:55.602Z,38.80
2017-08-02T07:21:23.930Z,38.10
2017-08-02T07:23:52.230Z,35.70
2017-08-02T07:26:20.514Z,34.47
2017-08-02T07:28:49.990Z,36.20
2017-08-02T07:31:18.272Z,28.57
2017-08-02T07:33:47.913Z,25.43
2017-08-02T07:36:16.532Z,28.20
2017-08-02T07:38:44.828Z,25.67
2017-08-02T07:41:14.263Z,26.07
2017-08-02T07:43:42.614Z,23.13
2017-08-02T07:46:10.903Z,26.73
2017-08-02T07:48:40.327Z,22.80
2017-08-02T07:51:08.941Z,24.07
2017-08-02T07:53:38.731Z,25.63
2017-08-02T07:56:08.363Z,24.93
2017-08-02T07:58:37.330Z,24.50
2017-08-02T08:01:05.615Z,24.90
2017-08-02T08:03:33.899Z,27.70
2017-08-02T08:06:02.564Z,24.33
2017-08-02T08:08:31.618Z,23.50
2017-08-02T08:10:59.924Z,23.90
2017-08-02T08:13:28.627Z,25.30
2017-08-02T08:15:58.441Z,25.00
2017-08-02T08:18:26.740Z,23.87
2017-08-02T08:20:55.088Z,25.07
2017-08-02T08:23:24.136Z,25.43
2017-08-02T08:25:53.188Z,24.83
2017-08-02T08:28:22.278Z,22.63
2017-08-02T08:30:51.910Z,21.03
2017-08-02T08:33:20.492Z,20.10
2017-08-02T08:35:49.123Z,20.77
2017-08-02T08:38:17.407Z,20.03
2017-08-02T08:40:45.700Z,19.57
2017-08-02T08:43:14.833Z,18.27
2017-08-02T08:45:43.123Z,20.53
2017-08-02T08:48:11.402Z,17.77
2017-08-02T08:50:39.744Z,15.00
2017-08-02T08:53:08.031Z,16.17
2017-08-02T08:55:36.315Z,16.87
2017-08-02T08:58:04.638Z,16.30
2017-08-02T09:00:33.686Z,16.20
2017-08-02T09:03:02.759Z,14.83
2017-08-02T09:05:32.458Z,15.77
2017-08-02T09:08:01.392Z,13.53
2017-08-02T09:10:29.697Z,14.10
2017-08-02T09:12:58.432Z,12.60
2017-08-02T09:15:28.091Z,16.23
2017-08-02T09:17:56.260Z,11.27
2017-08-02T09:20:25.350Z,10.60
2017-08-02T09:22:53.627Z,13.47
2017-08-02T09:25:21.908Z,10.37
2017-08-02T09:27:51.002Z,11.03
2017-08-02T09:30:19.278Z,10.17
2017-08-02T09:32:47.559Z,12.93
2017-08-02T09:35:17.771Z,12.13
2017-08-02T09:37:46.058Z,9.77
2017-08-02T09:40:14.343Z,8.20
2017-08-02T09:42:42.675Z,7.73
2017-08-02T09:45:11.715Z,7.97
2017-08-02T09:47:40.755Z,7.40
2017-08-02T09:50:09.082Z,7.77
2017-08-02T09:52:38.128Z,8.53
2017-08-02T09:55:06.399Z,6.20
2017-08-02T09:57:36.063Z,4.03
2017-08-02T10:00:04.211Z,5.13
2017-08-02T10:02:32.492Z,5.83
2017-08-02T10:05:00.822Z,4.83
2017-08-02T10:07:30.611Z,5.47
2017-08-02T10:09:58.896Z,5.67
2017-08-02T10:12:27.222Z,5.83
2017-08-02T10:14:55.491Z,6.20
2017-08-02T10:17:23.783Z,9.20
2017-08-02T10:19:52.367Z,6.00
2017-08-02T10:22:21.411Z,7.97
2017-08-02T10:24:50.451Z,7.40
2017-08-02T10:27:19.551Z,6.67
2017-08-02T10:29:47.830Z,7.43
2017-08-02T10:32:16.109Z,6.37
2017-08-02T10:34:45.961Z,7.67
2017-08-02T10:37:14.270Z,5.23
2017-08-02T10:39:42.540Z,6.30
2017-08-02T10:42:10.853Z,6.70
2017-08-02T10:44:39.131Z,7.27
2017-08-02T10:47:07.416Z,11.00
2017-08-02T10:49:37.159Z,6.53
2017-08-02T10:52:05.426Z,4.90
2017-08-02T10:54:35.214Z,5.90
2017-08-02T10:57:03.531Z,9.37
2017-08-02T10:59:31.830Z,7.57
2017-08-02T11:02:00.101Z,5.90
2017-08-02T11:04:28.777Z,5.10
2017-08-02T11:06:57.462Z,7.37
2017-08-02T11:09:25.732Z,4.53
2017-08-02T11:11:55.431Z,4.30
2017-08-02T11:14:24.347Z,4.87
2017-08-02T11:16:53.752Z,4.27
2017-08-02T11:19:22.379Z,6.60
2017-08-02T11:21:50.646Z,4.83
2017-08-02T11:24:18.919Z,7.77
2017-08-02T11:26:47.234Z,6.93
2017-08-02T11:29:16.653Z,5.67
2017-08-02T11:31:44.924Z,5.33
2017-08-02T11:34:13.239Z,6.10
2017-08-02T11:36:43.020Z,6.73
2017-08-02T11:39:12.063Z,6.00
2017-08-02T11:41:40.403Z,5.37
2017-08-02T11:44:10.177Z,5.73
2017-08-02T11:46:39.214Z,4.10
2017-08-02T11:49:08.600Z,5.23
2017-08-02T11:51:37.271Z,5.03
2017-08-02T11:54:05.570Z,4.37
2017-08-02T11:56:35.026Z,6.83
2017-08-02T11:59:03.691Z,7.10
2017-08-02T12:01:32.735Z,3.87
2017-08-02T12:04:01.836Z,4.90
2017-08-02T12:06:30.165Z,4.80
2017-08-02T12:08:58.463Z,6.10
2017-08-02T12:11:26.796Z,5.80
2017-08-02T12:13:55.065Z,6.00
2017-08-02T12:16:23.339Z,5.90
2017-08-02T12:18:51.692Z,4.53
2017-08-02T12:21:21.096Z,5.57
2017-08-02T12:23:49.363Z,6.40
2017-08-02T12:26:18.115Z,7.93
2017-08-02T12:28:47.153Z,4.77
2017-08-02T12:31:16.215Z,6.40
2017-08-02T12:33:45.610Z,7.13
2017-08-02T12:36:15.403Z,6.57
2017-08-02T12:38:43.671Z,4.40
2017-08-02T12:41:12.315Z,5.30
2017-08-02T12:43:41.722Z,3.50
2017-08-02T12:46:09.991Z,4.60
2017-08-02T12:48:39.095Z,2.33
2017-08-02T12:51:08.132Z,7.90
2017-08-02T12:53:37.172Z,5.57
2017-08-02T12:56:06.650Z,7.43
2017-08-02T12:58:34.914Z,3.80
2017-08-02T13:01:03.225Z,4.33
2017-08-02T13:03:32.906Z,5.70
2017-08-02T13:06:01.456Z,4.43
2017-08-02T13:08:29.753Z,5.30
2017-08-02T13:10:58.115Z,7.43
2017-08-02T13:13:27.203Z,7.00
2017-08-02T13:15:55.491Z,5.23
2017-08-02T13:18:25.326Z,4.23
2017-08-02T13:20:53.600Z,6.63
2017-08-02T13:23:23.374Z,5.33
2017-08-02T13:25:51.692Z,3.77
2017-08-02T13:28:19.962Z,5.43
2017-08-02T13:30:48.250Z,4.10
2017-08-02T13:33:16.593Z,2.97
2017-08-02T13:35:44.882Z,4.73
2017-08-02T13:38:13.155Z,3.37
2017-08-02T13:40:42.612Z,3.60
2017-08-02T13:43:10.882Z,3.20
2017-08-02T13:45:40.510Z,5.77
2017-08-02T13:48:09.468Z,2.90
2017-08-02T13:50:39.094Z,6.20
2017-08-02T13:53:07.242Z,4.03
2017-08-02T13:55:36.923Z,3.63
2017-08-02T13:58:06.417Z,3.93
2017-08-02T14:00:35.626Z,5.17
2017-08-02T14:03:05.773Z,3.70
2017-08-02T14:05:34.043Z,3.30
2017-08-02T14:08:02.330Z,3.93
2017-08-02T14:10:31.820Z,2.70
2017-08-02T14:13:00.102Z,3.87
2017-08-02T14:15:28.417Z,3.23
2017-08-02T14:17:58.262Z,3.17
2017-08-02T14:20:26.539Z,2.77
2017-08-02T14:22:55.575Z,4.57
2017-08-02T14:25:25.031Z,2.63
2017-08-02T14:27:54.652Z,6.77
2017-08-02T14:30:23.195Z,6.07
2017-08-02T14:32:52.982Z,2.90
2017-08-02T14:35:21.659Z,2.60
2017-08-02T14:37:49.955Z,5.03
2017-08-02T14:40:19.042Z,4.10
2017-08-02T14:42:47.331Z,2.70
2017-08-02T14:45:15.607Z,2.50
2017-08-02T14:47:43.943Z,5.90
2017-08-02T14:50:12.214Z,2.70
2017-08-02T14:52:41.834Z,2.83
2017-08-02T14:55:10.022Z,3.23
2017-08-02T14:57:38.302Z,4.20
2017-08-02T15:00:07.926Z,3.80
2017-08-02T15:02:37.017Z,3.13
2017-08-02T15:05:06.082Z,6.37
2017-08-02T15:07:34.770Z,4.30
2017-08-02T15:10:04.495Z,3.37
2017-08-02T15:12:33.444Z,2.70
2017-08-02T15:15:01.750Z,3.30
2017-08-02T15:17:31.451Z,4.47
2017-08-02T15:20:01.144Z,3.90
2017-08-02T15:22:29.448Z,3.73
2017-08-02T15:24:58.985Z,3.90
2017-08-02T15:27:27.280Z,4.63
2017-08-02T15:29:55.548Z,6.53
2017-08-02T15:32:23.867Z,3.97
2017-08-02T15:34:52.149Z,4.60
2017-08-02T15:37:21.935Z,3.70
2017-08-02T15:39:50.268Z,4.30
2017-08-02T15:42:18.551Z,3.13
2017-08-02T15:44:46.826Z,3.97
2017-08-02T15:47:16.962Z,4.87
2017-08-02T15:49:45.247Z,4.83
2017-08-02T15:52:15.026Z,4.83
2017-08-02T15:54:43.626Z,4.23
2017-08-02T15:57:12.291Z,5.33
2017-08-02T15:59:41.698Z,4.57
2017-08-02T16:02:10.795Z,4.77
2017-08-02T16:04:39.066Z,4.53
2017-08-02T16:07:07.339Z,5.77
2017-08-02T16:09:35.802Z,5.13
2017-08-02T16:12:05.213Z,7.80
2017-08-02T16:14:33.494Z,5.23
2017-08-02T16:17:01.834Z,5.27
2017-08-02T16:19:30.129Z,5.27
2017-08-02T16:21:58.426Z,5.87
2017-08-02T16:24:26.759Z,7.40
2017-08-02T16:26:56.167Z,5.93
2017-08-02T16:29:24.438Z,5.80
2017-08-02T16:31:53.070Z,5.13
2017-08-02T16:34:22.689Z,5.17
2017-08-02T16:36:51.223Z,4.60
2017-08-02T16:39:20.323Z,4.97
2017-08-02T16:41:49.946Z,7.90
2017-08-02T16:44:18.498Z,5.60
2017-08-02T16:46:48.463Z,5.77
2017-08-02T16:49:16.622Z,4.37
2017-08-02T16:51:44.899Z,4.27
2017-08-02T16:54:13.246Z,7.50
2017-08-02T16:56:41.911Z,5.60
2017-08-02T16:59:10.187Z,9.00
2017-08-02T17:01:39.270Z,6.10
2017-08-02T17:04:07.547Z,5.50
2017-08-02T17:06:35.822Z,4.80
2017-08-02T17:09:04.159Z,5.03
2017-08-02T17:11:33.806Z,7.03
2017-08-02T17:14:02.730Z,4.97
2017-08-02T17:16:31.329Z,4.73
2017-08-02T17:19:01.130Z,5.97
2017-08-02T17:21:30.186Z,4.90
2017-08-02T17:23:58.539Z,6.70
2017-08-02T17:26:26.818Z,5.97
2017-08-02T17:28:56.597Z,6.13
2017-08-02T17:31:24.945Z,5.80
2017-08-02T17:33:54.734Z,7.03
2017-08-02T17:36:23.026Z,7.37
2017-08-02T17:38:52.698Z,6.70
2017-08-02T17:41:21.248Z,5.70
2017-08-02T17:43:50.867Z,4.70
2017-08-02T17:46:19.453Z,5.60
2017-08-02T17:48:47.736Z,4.87
2017-08-02T17:51:16.008Z,5.20
2017-08-02T17:53:44.484Z,5.33
2017-08-02T17:56:12.760Z,4.10
2017-08-02T17:58:42.390Z,4.60
2017-08-02T18:01:11.350Z,4.33
2017-08-02T18:03:40.026Z,4.23
2017-08-02T18:06:09.444Z,4.20
2017-08-02T18:08:38.534Z,5.10
2017-08-02T18:11:06.804Z,3.97
2017-08-02T18:13:35.195Z,4.27
2017-08-02T18:16:04.720Z,4.63
2017-08-02T18:18:34.419Z,4.70
2017-08-02T18:21:03.041Z,4.70
2017-08-02T18:23:31.522Z,4.90
2017-08-02T18:25:59.955Z,4.23
2017-08-02T18:28:28.314Z,4.13
2017-08-02T18:30:58.286Z,5.00
2017-08-02T18:33:28.322Z,6.90
2017-08-02T18:35:56.607Z,5.60
2017-08-02T18:38:26.498Z,5.90
2017-08-02T18:40:54.833Z,6.20
2017-08-02T18:43:23.876Z,9.00
2017-08-02T18:45:52.962Z,5.90
2017-08-02T18:48:22.011Z,6.27
2017-08-02T18:50:50.289Z,6.50
2017-08-02T18:53:18.920Z,8.33
2017-08-02T18:55:48.344Z,7.23
2017-08-02T18:58:16.619Z,7.37
2017-08-02T19:00:45.751Z,7.23
2017-08-02T19:03:15.201Z,8.87
2017-08-02T19:05:43.512Z,7.37
2017-08-02T19:08:11.851Z,8.73
2017-08-02T19:10:40.205Z,7.37
2017-08-02T19:13:09.641Z,8.27
2017-08-02T19:15:38.431Z,7.57
2017-08-02T19:18:08.275Z,7.77
2017-08-02T19:20:37.755Z,7.30
2017-08-02T19:23:06.802Z,7.63
2017-08-02T19:25:35.916Z,7.83
2017-08-02T19:28:04.244Z,7.63
2017-08-02T19:30:34.181Z,8.97
2017-08-02T19:33:02.601Z,7.70
2017-08-02T19:35:32.380Z,8.00
2017-08-02T19:38:00.669Z,6.33
2017-08-02T19:40:30.514Z,6.80
2017-08-02T19:42:58.826Z,8.57
2017-08-02T19:45:28.805Z,8.53
2017-08-02T19:47:57.189Z,8.23
2017-08-02T19:50:25.584Z,8.60
2017-08-02T19:52:54.019Z,10.40
2017-08-02T19:55:23.836Z,8.63
2017-08-02T19:57:53.497Z,7.80
2017-08-02T20:00:22.206Z,7.83
2017-08-02T20:02:50.496Z,7.27
2017-08-02T20:05:18.784Z,8.67
2017-08-02T20:07:48.619Z,9.57
2017-08-02T20:10:18.407Z,13.23
2017-08-02T20:12:48.078Z,15.10
2017-08-02T20:15:16.283Z,13.50
2017-08-02T20:17:44.567Z,13.03
2017-08-02T20:20:13.244Z,14.43
2017-08-02T20:22:42.940Z,17.20
2017-08-02T20:25:11.090Z,18.93
2017-08-02T20:27:39.428Z,16.90
2017-08-02T20:30:07.783Z,19.97
2017-08-02T20:32:37.242Z,15.90
2017-08-02T20:35:07.022Z,15.80
2017-08-02T20:37:35.583Z,18.03
2017-08-02T20:40:03.950Z,15.70
2017-08-02T20:42:32.323Z,15.80
2017-08-02T20:45:01.441Z,17.77
2017-08-02T20:47:29.805Z,17.47
2017-08-02T20:49:58.589Z,20.47
2017-08-02T20:52:26.885Z,15.63
2017-08-02T20:54:55.979Z,16.93
2017-08-02T20:57:24.368Z,15.70
2017-08-02T20:59:53.783Z,15.50
2017-08-02T21:02:22.065Z,13.63
2017-08-02T21:04:50.490Z,15.50
2017-08-02T21:07:18.854Z,13.60
2017-08-02T21:09:47.184Z,12.93
2017-08-02T21:12:15.515Z,11.80
2017-08-02T21:14:44.942Z,14.73
2017-08-02T21:17:13.283Z,39.87
2017-08-02T21:19:41.627Z,18.13
2017-08-02T21:22:09.911Z,13.80
2017-08-02T21:24:38.195Z,16.50
2017-08-02T21:27:07.436Z,17.33
2017-08-02T21:29:37.223Z,18.50
2017-08-02T21:32:05.517Z,18.27
2017-08-02T21:34:33.882Z,18.93
2017-08-02T21:37:02.183Z,16.40
2017-08-02T21:39:30.479Z,14.97
2017-08-02T21:42:00.182Z,17.50
2017-08-02T21:44:28.400Z,12.53
2017-08-02T21:46:56.691Z,12.17
2017-08-02T21:49:26.554Z,11.77
2017-08-02T21:51:55.597Z,13.77
2017-08-02T21:54:24.659Z,12.40
2017-08-02T21:56:53.379Z,12.60
2017-08-02T21:59:21.677Z,15.37
2017-08-02T22:01:49.966Z,14.17
2017-08-02T22:04:20.082Z,13.13
2017-08-02T22:06:48.380Z,10.23
2017-08-02T22:09:17.079Z,11.43
2017-08-02T22:11:45.434Z,12.53
2017-08-02T22:14:14.119Z,11.00
2017-08-02T22:19:39.975Z,11.43
2017-08-02T22:22:09.762Z,9.70
2017-08-02T22:24:38.438Z,10.90
2017-08-02T22:27:08.450Z,11.03
2017-08-02T22:29:37.971Z,11.03
2017-08-02T22:32:06.136Z,13.27
2017-08-02T22:34:34.770Z,12.30
2017-08-02T22:37:04.574Z,13.80
2017-08-02T22:39:33.275Z,13.80
2017-08-02T22:42:02.022Z,13.23
2017-08-02T22:44:30.727Z,13.00
2017-08-02T22:46:59.807Z,13.03
2017-08-02T22:49:28.173Z,15.30
2017-08-02T22:51:57.230Z,16.10
2017-08-02T22:54:26.862Z,13.07
2017-08-02T22:56:55.763Z,14.37
2017-08-02T22:59:25.555Z,14.40
2017-08-02T23:01:53.839Z,13.63
2017-08-02T23:04:22.171Z,13.17
2017-08-02T23:06:51.810Z,12.03
2017-08-02T23:09:19.979Z,13.83
2017-08-02T23:11:48.340Z,11.70
2017-08-02T23:14:16.639Z,12.67
2017-08-02T23:16:45.329Z,14.07
2017-08-02T23:19:14.699Z,12.77
2017-08-02T23:21:42.983Z,13.70
2017-08-02T23:24:12.626Z,15.10
2017-08-02T23:26:41.263Z,14.97
2017-08-02T23:29:09.546Z,13.50
2017-08-02T23:31:37.839Z,14.50
2017-08-02T23:34:06.187Z,12.43
2017-08-02T23:36:35.239Z,13.50
2017-08-02T23:39:03.535Z,16.03
2017-08-02T23:41:31.880Z,13.90
2017-08-02T23:44:01.341Z,14.53
2017-08-02T23:46:29.641Z,15.77
2017-08-02T23:48:59.339Z,15.07
2017-08-02T23:51:27.502Z,18.37
2017-08-02T23:53:55.787Z,15.87
2017-08-02T23:56:24.119Z,17.03
2017-08-02T23:58:52.417Z,15.77
